Time;durP1;ratioP1;P1;durP2;ratioP2;P2;SDS_P1;SDS_P2;PMS_P1;PMS_P2;Temp;Humidity;BMP_temperature;BMP_pressure;BME280_temperature;BME280_humidity;BME280_pressure;Samples;Min_cycle;Max_cycle;Signal;HPM_P1;HPM_P2
2023/03/30 00:01:29;;;;;;;9.70;7.30;;;13.00;38.70;;;;;;5014084;28;20508;-52
2023/03/30 00:03:57;;;;;;;11.17;7.80;;;13.10;38.80;;;;;;5013966;28;20424;-52
2023/03/30 00:06:23;;;;;;;11.05;7.85;;;13.10;38.80;;;;;;5014104;28;20174;-52
2023/03/30 00:08:56;;;;;;;11.77;7.67;;;13.10;39.00;;;;;;5013915;28;20268;-51
2023/03/30 00:11:23;;;;;;;12.75;8.02;;;13.10;39.00;;;;;;5013830;28;20386;-50
2023/03/30 00:13:50;;;;;;;8.77;7.28;;;13.10;39.10;;;;;;5013877;28;20183;-52
2023/03/30 00:16:17;;;;;;;9.73;6.80;;;13.10;39.10;;;;;;5013980;28;20174;-52
2023/03/30 00:18:43;;;;;;;9.48;7.30;;;13.10;39.00;;;;;;5013641;28;20673;-52
2023/03/30 00:21:10;;;;;;;9.02;7.88;;;13.10;39.00;;;;;;5013859;28;20178;-49
2023/03/30 00:23:37;;;;;;;10.57;8.45;;;13.20;39.10;;;;;;5013306;28;20306;-53
2023/03/30 00:26:03;;;;;;;11.50;7.85;;;13.20;39.20;;;;;;5013670;28;20179;-52
2023/03/30 00:28:32;;;;;;;14.13;8.13;;;13.10;39.30;;;;;;5013701;28;20546;-52
2023/03/30 00:30:58;;;;;;;9.48;7.70;;;13.10;39.40;;;;;;5013587;28;20193;-50
2023/03/30 00:33:24;;;;;;;9.60;6.90;;;13.10;39.40;;;;;;5013213;28;20708;-52
2023/03/30 00:35:54;;;;;;;11.03;8.60;;;13.00;39.50;;;;;;5013568;28;20178;-52
2023/03/30 00:38:20;;;;;;;11.10;7.90;;;13.00;39.60;;;;;;5013293;28;20429;-50
2023/03/30 00:40:57;;;;;;;8.87;7.53;;;12.90;39.70;;;;;;5013546;28;20175;-52
2023/03/30 00:43:25;;;;;;;10.13;8.40;;;13.00;39.80;;;;;;5013435;28;20405;-52
2023/03/30 00:45:51;;;;;;;9.10;8.00;;;12.90;39.90;;;;;;5013617;28;20311;-53
2023/03/30 00:48:30;;;;;;;11.73;7.33;;;12.90;39.90;;;;;;5013117;28;20214;-52
2023/03/30 00:51:01;;;;;;;13.35;7.32;;;13.00;39.90;;;;;;5013245;28;20452;-52
2023/03/30 00:53:32;;;;;;;9.85;7.68;;;13.00;40.00;;;;;;5012982;28;20222;-50
2023/03/30 00:55:59;;;;;;;8.85;6.80;;;13.00;40.00;;;;;;5013367;28;20159;-49
2023/03/30 00:58:28;;;;;;;10.90;8.63;;;13.00;39.90;;;;;;5013333;28;20198;-52
2023/03/30 01:00:57;;;;;;;9.73;8.32;;;13.10;39.90;;;;;;5013018;28;20197;-52
2023/03/30 01:03:42;;;;;;;9.43;7.07;;;13.20;39.80;;;;;;5012787;28;20222;-53
2023/03/30 01:06:08;;;;;;;10.15;7.88;;;13.20;39.70;;;;;;5013193;28;20163;-52
2023/03/30 01:08:36;;;;;;;8.57;7.65;;;13.30;39.50;;;;;;5013083;28;20202;-51
2023/03/30 01:11:03;;;;;;;9.00;7.15;;;13.30;39.60;;;;;;5013055;28;20174;-49
2023/03/30 01:13:32;;;;;;;9.35;6.75;;;13.30;39.60;;;;;;5012552;28;20835;-52
2023/03/30 01:16:04;;;;;;;13.65;9.70;;;13.20;39.70;;;;;;5012831;28;20265;-50
2023/03/30 01:18:56;;;;;;;13.73;7.45;;;13.20;39.60;;;;;;5012696;28;20218;-52
2023/03/30 01:21:33;;;;;;;10.63;6.78;;;13.30;39.70;;;;;;5012876;28;20177;-49
2023/03/30 01:24:36;;;;;;;8.75;7.85;;;13.20;39.80;;;;;;5012742;28;20159;-50
2023/03/30 01:27:49;;;;;;;9.48;7.40;;;13.20;39.70;;;;;;5012594;28;20661;-49
2023/03/30 01:30:23;;;;;;;9.70;6.88;;;13.10;39.90;;;;;;5012261;28;20181;-51
2023/03/30 01:33:19;;;;;;;11.75;8.80;;;13.10;40.00;;;;;;5012258;28;20257;-51
2023/03/30 01:36:07;;;;;;;9.73;7.53;;;13.10;40.10;;;;;;5012185;28;20170;-51
2023/03/30 01:38:51;;;;;;;15.60;9.30;;;13.10;40.20;;;;;;5012736;28;20202;-52
2023/03/30 01:41:35;;;;;;;10.63;6.82;;;13.10;40.30;;;;;;5012348;28;20170;-52
2023/03/30 01:44:41;;;;;;;8.73;6.88;;;13.10;40.20;;;;;;5012230;28;20808;-52
2023/03/30 01:47:25;;;;;;;8.73;6.93;;;13.10;40.20;;;;;;5012421;28;20174;-52
2023/03/30 01:50:00;;;;;;;14.30;8.13;;;13.10;40.40;;;;;;5012400;28;20229;-51
2023/03/30 01:52:39;;;;;;;10.75;8.60;;;13.10;40.40;;;;;;5011999;28;20213;-52
2023/03/30 01:55:41;;;;;;;10.05;8.30;;;13.20;40.50;;;;;;5012226;28;20184;-52
2023/03/30 01:58:21;;;;;;;9.82;7.72;;;13.20;40.60;;;;;;5009852;28;20204;-52
2023/03/30 02:00:49;;;;;;;8.27;6.97;;;13.20;40.70;;;;;;5012131;28;20520;-52
2023/03/30 02:03:21;;;;;;;10.05;7.95;;;13.20;40.50;;;;;;5012132;28;20253;-52
2023/03/30 02:05:52;;;;;;;9.25;8.02;;;13.30;40.70;;;;;;5012167;28;20291;-52
2023/03/30 02:08:23;;;;;;;11.95;8.18;;;13.30;40.80;;;;;;5012304;28;20325;-51
2023/03/30 02:10:52;;;;;;;11.48;7.60;;;13.30;40.70;;;;;;5012429;28;20170;-51
2023/03/30 02:13:19;;;;;;;14.15;10.35;;;13.20;40.70;;;;;;5012131;28;20230;-51
2023/03/30 02:15:52;;;;;;;12.30;9.73;;;13.20;40.80;;;;;;5012297;28;20182;-52
2023/03/30 02:18:21;;;;;;;9.55;7.63;;;13.20;40.80;;;;;;5012031;28;20268;-51
2023/03/30 02:20:48;;;;;;;10.10;8.02;;;13.30;40.80;;;;;;5011971;28;20182;-52
2023/03/30 02:33:30;;;;;;;9.65;7.60;;;13.20;41.00;;;;;;5011679;28;20194;-51
2023/03/30 02:36:33;;;;;;;10.95;8.25;;;13.20;41.30;;;;;;5011971;28;20174;-52
2023/03/30 02:39:28;;;;;;;12.80;9.88;;;13.20;41.30;;;;;;5011795;28;20197;-51
2023/03/30 02:42:15;;;;;;;14.40;10.27;;;13.20;41.30;;;;;;5011910;28;20178;-51
2023/03/30 02:45:16;;;;;;;10.85;9.38;;;13.20;41.30;;;;;;5011980;28;20173;-52
2023/03/30 02:47:51;;;;;;;9.73;8.75;;;13.30;41.40;;;;;;5014747;28;20225;-52
2023/03/30 02:50:30;;;;;;;11.88;9.50;;;13.20;41.40;;;;;;5015657;28;20182;-53
2023/03/30 02:53:54;;;;;;;15.20;10.43;;;13.20;41.60;;;;;;5015107;28;20198;-52
2023/03/30 02:56:32;;;;;;;14.70;10.60;;;13.30;41.60;;;;;;4954645;29;20181;-52
2023/03/30 02:59:06;;;;;;;14.30;10.23;;;13.20;41.50;;;;;;5008020;28;20191;-52
2023/03/30 03:01:47;;;;;;;15.25;11.93;;;13.20;41.70;;;;;;5015265;28;20170;-53
2023/03/30 03:04:16;;;;;;;16.95;11.35;;;13.20;41.90;;;;;;5015242;28;20178;-52
2023/03/30 03:06:42;;;;;;;17.95;14.00;;;13.20;41.90;;;;;;5015116;28;20174;-52
2023/03/30 03:09:08;;;;;;;23.37;13.77;;;13.20;41.90;;;;;;5015267;28;20198;-52
2023/03/30 03:11:34;;;;;;;17.27;12.88;;;13.20;42.00;;;;;;5015102;28;20401;-52
2023/03/30 03:14:00;;;;;;;17.20;13.80;;;13.20;41.90;;;;;;5015169;28;20178;-53
2023/03/30 03:16:26;;;;;;;14.13;12.63;;;13.20;42.10;;;;;;5015229;28;20182;-53
2023/03/30 03:18:52;;;;;;;18.87;14.47;;;13.20;42.10;;;;;;5014680;28;20537;-52
2023/03/30 03:21:18;;;;;;;17.92;12.50;;;13.20;42.40;;;;;;5015068;28;20265;-53
2023/03/30 03:23:47;;;;;;;18.30;13.40;;;13.20;42.10;;;;;;5014549;28;20265;-53
2023/03/30 03:26:12;;;;;;;19.10;13.88;;;13.20;42.00;;;;;;5014833;28;20225;-52
2023/03/30 03:28:39;;;;;;;22.27;14.50;;;13.20;42.00;;;;;;5014647;28;20203;-52
2023/03/30 03:31:05;;;;;;;18.45;13.52;;;13.30;42.00;;;;;;5014643;28;20452;-51
2023/03/30 03:33:31;;;;;;;16.48;12.73;;;13.30;42.00;;;;;;5014264;28;20309;-52
2023/03/30 03:35:59;;;;;;;17.05;13.48;;;13.30;42.00;;;;;;5014790;28;20228;-52
2023/03/30 03:38:26;;;;;;;17.50;12.77;;;13.30;41.90;;;;;;5029607;28;20789;-52
2023/03/30 03:40:54;;;;;;;17.27;12.90;;;13.40;41.80;;;;;;5014540;28;20202;-51
2023/03/30 03:43:20;;;;;;;18.98;14.77;;;13.30;41.90;;;;;;5014276;28;20185;-51
2023/03/30 03:45:47;;;;;;;24.42;16.77;;;13.40;41.80;;;;;;5014681;28;20179;-52
2023/03/30 03:48:14;;;;;;;20.13;13.95;;;13.40;41.80;;;;;;5014561;28;20198;-52
2023/03/30 03:50:40;;;;;;;17.75;14.27;;;13.40;41.60;;;;;;5014364;28;20615;-51
2023/03/30 03:53:06;;;;;;;23.15;15.25;;;13.30;41.50;;;;;;5013981;28;20210;-52
2023/03/30 03:55:34;;;;;;;25.23;14.18;;;13.40;41.40;;;;;;5014249;28;20181;-52
2023/03/30 03:58:05;;;;;;;15.75;13.25;;;13.40;41.30;;;;;;5013615;28;20230;-53
2023/03/30 04:00:31;;;;;;;20.35;13.93;;;13.40;41.10;;;;;;5014041;28;20179;-51
2023/03/30 04:02:57;;;;;;;19.65;13.40;;;13.30;41.00;;;;;;5014116;28;20257;-51
2023/03/30 04:05:23;;;;;;;17.15;13.07;;;13.30;41.00;;;;;;5031205;23;20336;-52
2023/03/30 04:07:52;;;;;;;19.08;14.00;;;13.30;40.90;;;;;;5033713;28;20178;-52
2023/03/30 04:10:19;;;;;;;18.90;12.43;;;13.30;41.00;;;;;;5034013;28;20174;-52
2023/03/30 04:12:44;;;;;;;16.98;12.63;;;13.30;40.80;;;;;;5033467;28;20676;-52
2023/03/30 04:15:11;;;;;;;22.33;13.80;;;13.30;40.80;;;;;;5033818;28;20198;-52
2023/03/30 04:17:37;;;;;;;23.70;13.65;;;13.20;40.80;;;;;;5033869;28;20220;-52
2023/03/30 04:20:04;;;;;;;16.07;13.83;;;13.20;40.90;;;;;;5033578;28;20170;-51
2023/03/30 04:22:40;;;;;;;17.95;14.05;;;13.20;41.00;;;;;;5033314;28;20447;-52
2023/03/30 04:25:07;;;;;;;20.60;13.98;;;13.10;40.90;;;;;;5033647;28;20204;-52
2023/03/30 04:27:33;;;;;;;17.92;14.30;;;13.10;41.00;;;;;;5033670;28;20186;-52
2023/03/30 04:30:00;;;;;;;17.27;12.60;;;13.10;41.00;;;;;;5033538;28;20200;-52
2023/03/30 04:32:26;;;;;;;16.95;13.68;;;13.00;41.00;;;;;;5033092;28;20535;-52
2023/03/30 04:34:53;;;;;;;19.67;14.07;;;13.00;41.10;;;;;;5033170;28;20277;-51
2023/03/30 04:37:22;;;;;;;15.20;11.75;;;13.00;41.30;;;;;;5033213;28;20182;-52
2023/03/30 04:39:49;;;;;;;15.07;12.00;;;12.90;41.40;;;;;;5033098;28;20184;-51
2023/03/30 04:42:18;;;;;;;14.77;11.90;;;12.90;41.30;;;;;;5033184;28;20178;-52
2023/03/30 04:44:45;;;;;;;15.90;13.38;;;12.90;41.50;;;;;;5032957;28;20700;-52
2023/03/30 04:47:10;;;;;;;20.17;13.95;;;12.80;41.50;;;;;;5032908;28;20185;-52
2023/03/30 04:49:36;;;;;;;20.80;14.73;;;12.90;41.50;;;;;;5033041;28;20174;-52
2023/03/30 04:52:02;;;;;;;16.33;12.93;;;12.90;41.40;;;;;;5032734;28;20244;-51
2023/03/30 04:54:28;;;;;;;17.93;12.90;;;12.90;41.50;;;;;;5033145;28;20823;-51
2023/03/30 04:56:53;;;;;;;15.10;13.03;;;12.90;41.50;;;;;;5032826;28;20876;-52
2023/03/30 04:59:19;;;;;;;16.47;12.97;;;12.80;41.50;;;;;;5032848;28;20173;-52
2023/03/30 05:01:45;;;;;;;16.60;13.17;;;12.80;41.50;;;;;;5032844;28;20179;-52
2023/03/30 05:04:11;;;;;;;16.83;12.40;;;12.80;42.10;;;;;;5032509;28;20843;-52
2023/03/30 05:06:36;;;;;;;15.00;11.50;;;12.80;41.40;;;;;;5032599;28;20822;-52
2023/03/30 05:09:02;;;;;;;16.77;13.57;;;12.80;41.50;;;;;;5031839;28;20181;-51
2023/03/30 05:11:28;;;;;;;19.53;13.70;;;12.90;41.50;;;;;;5032664;28;20178;-52
2023/03/30 05:13:54;;;;;;;15.30;13.23;;;12.80;41.50;;;;;;5032396;28;20435;-52
2023/03/30 05:16:21;;;;;;;16.48;13.32;;;12.80;41.60;;;;;;5032433;28;20277;-52
2023/03/30 05:18:46;;;;;;;15.25;13.43;;;12.90;41.80;;;;;;5032505;28;20277;-51
2023/03/30 05:21:12;;;;;;;15.43;12.40;;;12.90;41.70;;;;;;5032358;28;20827;-52
2023/03/30 05:23:38;;;;;;;17.80;13.00;;;12.90;41.80;;;;;;5032260;28;20216;-52
2023/03/30 05:26:06;;;;;;;19.83;13.30;;;12.90;41.70;;;;;;5032230;28;20197;-52
2023/03/30 05:28:32;;;;;;;21.45;15.57;;;13.00;41.80;;;;;;5032374;28;20648;-52
2023/03/30 05:30:58;;;;;;;14.40;12.68;;;13.00;41.60;;;;;;5032271;28;20232;-52
2023/03/30 05:33:24;;;;;;;19.13;13.25;;;13.00;41.60;;;;;;5032014;28;20209;-52
2023/03/30 05:35:50;;;;;;;23.60;15.40;;;13.10;41.80;;;;;;5030779;28;20186;-51
2023/03/30 05:38:17;;;;;;;17.33;13.73;;;13.00;41.70;;;;;;5032358;28;20205;-52
2023/03/30 05:40:43;;;;;;;20.90;14.18;;;13.10;41.90;;;;;;5032224;28;20205;-52
2023/03/30 05:43:09;;;;;;;24.15;14.43;;;13.10;41.90;;;;;;5032032;28;20178;-51
2023/03/30 05:45:35;;;;;;;22.27;14.32;;;13.10;41.90;;;;;;5031948;28;20202;-52
2023/03/30 05:48:01;;;;;;;17.40;15.57;;;13.10;41.90;;;;;;5032328;28;20256;-52
2023/03/30 05:50:27;;;;;;;18.97;13.57;;;13.20;41.80;;;;;;5032149;28;20581;-52
2023/03/30 05:52:53;;;;;;;18.00;13.40;;;13.20;41.70;;;;;;5031802;28;20873;-52
2023/03/30 05:55:19;;;;;;;16.73;12.83;;;13.20;41.70;;;;;;5031937;28;20420;-52
2023/03/30 05:57:45;;;;;;;14.53;12.10;;;13.30;41.90;;;;;;5032089;28;20169;-52
2023/03/30 06:00:12;;;;;;;15.85;13.18;;;13.30;41.80;;;;;;5031987;28;20249;-52
2023/03/30 06:02:39;;;;;;;16.15;12.35;;;14.10;42.10;;;;;;5031759;28;20196;-52
2023/03/30 06:05:05;;;;;;;14.60;12.07;;;13.50;41.70;;;;;;5031566;28;20212;-52
2023/03/30 06:07:31;;;;;;;19.13;12.43;;;13.50;41.70;;;;;;5031878;28;20519;-52
2023/03/30 06:09:58;;;;;;;16.17;12.52;;;13.60;41.70;;;;;;5031864;28;20557;-52
2023/03/30 06:12:25;;;;;;;16.80;12.90;;;13.60;41.60;;;;;;5031738;28;20240;-53
2023/03/30 06:14:51;;;;;;;19.90;13.32;;;13.60;41.60;;;;;;5032054;28;20205;-52
2023/03/30 06:17:17;;;;;;;17.40;13.23;;;13.70;41.40;;;;;;5031986;28;20174;-52
2023/03/30 06:19:43;;;;;;;16.30;11.52;;;13.70;41.40;;;;;;5031696;28;20256;-52
2023/03/30 06:22:09;;;;;;;15.03;11.37;;;13.80;41.50;;;;;;5035125;28;20652;-52
2023/03/30 06:24:34;;;;;;;17.63;12.60;;;13.90;41.50;;;;;;5035695;28;20842;-52
2023/03/30 06:27:02;;;;;;;23.03;15.40;;;14.10;41.10;;;;;;5035678;28;20492;-52
2023/03/30 06:29:28;;;;;;;17.73;12.05;;;14.10;41.10;;;;;;5035706;28;20178;-52
2023/03/30 06:31:54;;;;;;;19.60;13.37;;;14.20;41.00;;;;;;5035403;28;20205;-52
2023/03/30 06:34:20;;;;;;;19.77;12.00;;;14.30;41.00;;;;;;5035331;28;20409;-51
2023/03/30 06:36:46;;;;;;;17.57;12.30;;;14.40;40.90;;;;;;5035442;28;20227;-52
2023/03/30 06:39:12;;;;;;;16.02;12.32;;;14.50;41.00;;;;;;5035589;28;20216;-52
2023/03/30 06:41:38;;;;;;;19.40;12.30;;;14.60;40.50;;;;;;5035345;28;20638;-51
2023/03/30 06:44:05;;;;;;;14.90;12.30;;;14.60;40.20;;;;;;5035254;28;20174;-51
2023/03/30 06:46:32;;;;;;;13.98;12.48;;;14.60;40.30;;;;;;5035253;28;20983;-52
2023/03/30 06:48:58;;;;;;;22.50;12.65;;;14.70;40.50;;;;;;5035204;28;20264;-51
2023/03/30 06:51:23;;;;;;;17.43;13.37;;;14.70;40.10;;;;;;5035389;28;20261;-52
2023/03/30 06:53:49;;;;;;;17.30;12.30;;;14.70;40.20;;;;;;5034939;28;20448;-52
2023/03/30 06:56:15;;;;;;;14.20;11.57;;;14.70;40.20;;;;;;5034969;28;20197;-52
2023/03/30 06:58:41;;;;;;;16.97;12.60;;;14.80;40.30;;;;;;5035173;28;20170;-52
2023/03/30 07:01:14;;;;;;;12.70;9.83;;;14.80;40.30;;;;;;5035316;28;20219;-51
2023/03/30 07:03:40;;;;;;;14.23;11.90;;;14.90;40.30;;;;;;5034751;28;20170;-52
2023/03/30 07:06:08;;;;;;;13.82;12.07;;;14.90;40.30;;;;;;5034643;28;20584;-52
2023/03/30 07:08:34;;;;;;;19.35;11.45;;;15.00;40.00;;;;;;5035007;28;20181;-51
2023/03/30 07:11:01;;;;;;;15.30;12.00;;;15.00;39.80;;;;;;5034951;28;20174;-52
2023/03/30 07:13:27;;;;;;;17.23;12.57;;;15.00;39.70;;;;;;5034626;28;20190;-52
2023/03/30 07:15:53;;;;;;;13.10;11.17;;;15.00;39.60;;;;;;5034548;28;20186;-52
2023/03/30 07:18:19;;;;;;;19.57;12.53;;;15.00;39.80;;;;;;5034758;28;20400;-52
2023/03/30 07:20:45;;;;;;;17.02;11.95;;;15.10;40.00;;;;;;5034710;28;20177;-52
2023/03/30 07:23:11;;;;;;;19.42;12.48;;;15.10;40.00;;;;;;5034425;28;20170;-53
2023/03/30 07:25:38;;;;;;;16.35;11.68;;;15.20;39.80;;;;;;5034811;28;20212;-52
2023/03/30 07:28:06;;;;;;;14.73;13.13;;;15.30;39.90;;;;;;5034591;28;20681;-52
2023/03/30 07:30:33;;;;;;;15.95;12.00;;;15.40;40.00;;;;;;5034593;28;20181;-50
2023/03/30 07:32:59;;;;;;;15.77;11.73;;;15.60;39.80;;;;;;5033327;28;20193;-52
2023/03/30 07:35:25;;;;;;;16.70;12.27;;;15.70;39.70;;;;;;5034437;28;20256;-52
2023/03/30 07:37:51;;;;;;;15.67;11.00;;;15.90;39.50;;;;;;5034683;28;20649;-52
2023/03/30 07:40:17;;;;;;;12.57;10.30;;;16.20;39.40;;;;;;5034193;28;20177;-52
2023/03/30 07:42:43;;;;;;;13.18;10.45;;;16.40;39.10;;;;;;5034073;28;20476;-52
2023/03/30 07:45:09;;;;;;;16.17;10.43;;;16.60;39.10;;;;;;5034110;28;20229;-52
2023/03/30 07:47:36;;;;;;;14.68;10.23;;;16.90;38.70;;;;;;5034483;28;20174;-52
2023/03/30 07:50:02;;;;;;;11.70;9.70;;;17.20;38.40;;;;;;5034319;28;20228;-52
2023/03/30 07:52:28;;;;;;;16.48;8.80;;;17.30;37.80;;;;;;5034026;28;20193;-51
2023/03/30 07:54:55;;;;;;;11.57;9.13;;;17.50;37.10;;;;;;5034007;28;20703;-51
2023/03/30 07:57:21;;;;;;;9.55;8.35;;;17.50;37.70;;;;;;5034270;28;20178;-53
2023/03/30 07:59:47;;;;;;;11.33;8.40;;;17.60;36.50;;;;;;5034190;28;20687;-51
2023/03/30 08:02:13;;;;;;;13.67;8.90;;;17.70;36.60;;;;;;5033644;28;20467;-50
2023/03/30 08:04:43;;;;;;;10.35;8.48;;;17.70;36.50;;;;;;5033979;28;20209;-53
2023/03/30 08:07:10;;;;;;;10.27;8.32;;;17.70;37.00;;;;;;5033748;28;20182;-50
2023/03/30 08:09:35;;;;;;;13.32;9.52;;;17.80;36.50;;;;;;5034098;28;20192;-50
2023/03/30 08:12:02;;;;;;;11.80;9.27;;;17.80;36.60;;;;;;5033427;28;20665;-53
2023/03/30 08:14:27;;;;;;;13.55;8.70;;;17.80;36.30;;;;;;5033517;28;20772;-51
2023/03/30 08:16:54;;;;;;;17.07;10.57;;;17.90;36.40;;;;;;5033630;28;20163;-51
2023/03/30 08:19:22;;;;;;;16.67;8.70;;;17.90;36.20;;;;;;5033886;28;20174;-51
2023/03/30 08:21:48;;;;;;;10.27;8.40;;;18.00;36.60;;;;;;5033350;28;20170;-51
2023/03/30 08:24:14;;;;;;;14.90;9.00;;;18.20;36.60;;;;;;5033346;28;20257;-52
2023/03/30 08:26:40;;;;;;;11.40;9.10;;;18.30;36.60;;;;;;5033584;28;20222;-54
2023/03/30 08:29:07;;;;;;;11.93;9.38;;;18.40;35.90;;;;;;5033588;28;20408;-51
2023/03/30 08:31:33;;;;;;;12.32;8.30;;;18.50;35.90;;;;;;5033187;28;20181;-51
2023/03/30 08:33:59;;;;;;;14.93;10.00;;;18.50;35.70;;;;;;5033169;28;20170;-51
2023/03/30 08:36:25;;;;;;;16.88;10.73;;;18.50;35.90;;;;;;5033161;28;20425;-50
2023/03/30 08:38:53;;;;;;;16.02;8.98;;;19.20;36.40;;;;;;5033246;28;20645;-53
2023/03/30 08:41:54;;;;;;;10.70;9.48;;;18.60;36.20;;;;;;5033350;28;20174;-53
2023/03/30 08:44:54;;;;;;;17.95;9.88;;;18.70;36.20;;;;;;5032746;28;20219;-54
2023/03/30 08:47:32;;;;;;;10.95;9.25;;;18.60;36.00;;;;;;4990179;28;20542;-53
2023/03/30 08:50:07;;;;;;;13.68;9.95;;;18.70;36.10;;;;;;5033015;28;20684;-50
2023/03/30 08:52:35;;;;;;;10.60;8.27;;;18.60;35.90;;;;;;5032893;28;20296;-53
2023/03/30 08:55:02;;;;;;;17.17;10.90;;;18.60;35.90;;;;;;5032836;28;20193;-53
2023/03/30 08:57:35;;;;;;;12.23;9.93;;;18.50;35.90;;;;;;5032800;28;20598;-53
2023/03/30 09:00:24;;;;;;;15.77;10.25;;;18.50;35.90;;;;;;5033031;28;20185;-53
2023/03/30 09:02:56;;;;;;;13.63;9.75;;;18.40;35.60;;;;;;5020125;28;20185;-53
2023/03/30 09:05:28;;;;;;;15.00;9.80;;;18.30;35.90;;;;;;5032692;28;20272;-54
2023/03/30 09:08:02;;;;;;;16.88;9.20;;;18.30;36.40;;;;;;5033007;28;20686;-53
2023/03/30 09:10:33;;;;;;;12.15;8.70;;;18.20;36.40;;;;;;5032798;28;20173;-53
2023/03/30 09:13:03;;;;;;;17.67;10.48;;;18.10;36.10;;;;;;5032506;28;20343;-53
2023/03/30 09:15:38;;;;;;;14.93;10.55;;;18.10;36.20;;;;;;5032677;28;20574;-53
2023/03/30 09:18:21;;;;;;;13.57;10.00;;;18.00;36.30;;;;;;5033124;28;20161;-53
2023/03/30 09:20:49;;;;;;;13.10;11.70;;;18.00;36.70;;;;;;5032700;28;20162;-53
2023/03/30 09:23:17;;;;;;;13.73;11.30;;;17.90;36.60;;;;;;5032346;28;20178;-53
2023/03/30 09:26:03;;;;;;;12.95;10.93;;;17.80;36.50;;;;;;5032484;28;20198;-53
2023/03/30 09:28:55;;;;;;;14.43;10.23;;;17.70;36.60;;;;;;5032689;28;20158;-53
2023/03/30 09:31:43;;;;;;;16.17;11.55;;;17.70;37.10;;;;;;5032231;28;20179;-54
2023/03/30 09:34:31;;;;;;;19.55;13.60;;;17.60;37.90;;;;;;5032462;28;20673;-53
2023/03/30 09:37:04;;;;;;;23.98;14.13;;;17.50;38.30;;;;;;5032456;28;20524;-53
2023/03/30 09:39:33;;;;;;;17.05;11.80;;;17.50;38.80;;;;;;5032148;28;20173;-53
2023/03/30 09:42:05;;;;;;;16.85;13.65;;;17.50;39.30;;;;;;5032170;28;20181;-50
2023/03/30 09:44:36;;;;;;;21.10;13.65;;;17.40;39.40;;;;;;5032185;28;20205;-53
2023/03/30 09:47:12;;;;;;;21.60;13.50;;;17.30;39.70;;;;;;5032381;28;20211;-53
2023/03/30 09:49:38;;;;;;;16.38;13.57;;;17.30;40.30;;;;;;5032163;28;20186;-53
2023/03/30 09:52:06;;;;;;;17.87;13.87;;;17.20;41.50;;;;;;5031688;28;20251;-52
2023/03/30 09:54:40;;;;;;;17.95;13.68;;;17.00;41.40;;;;;;5031937;28;20966;-53
2023/03/30 09:57:22;;;;;;;23.63;14.80;;;17.00;41.50;;;;;;5031580;28;20736;-53
2023/03/30 09:59:48;;;;;;;20.17;16.45;;;16.80;41.90;;;;;;5032061;28;20182;-50
2023/03/30 10:02:17;;;;;;;16.87;13.73;;;16.70;42.80;;;;;;5031718;28;20708;-52
2023/03/30 10:04:51;;;;;;;19.60;14.20;;;16.70;42.80;;;;;;5031657;28;20213;-53
2023/03/30 10:07:37;;;;;;;21.10;16.45;;;16.60;42.90;;;;;;5031932;28;20838;-51
2023/03/30 10:10:20;;;;;;;21.42;15.15;;;16.60;43.10;;;;;;5032077;28;20186;-53
2023/03/30 10:12:49;;;;;;;19.83;14.02;;;16.50;43.00;;;;;;5031624;28;20194;-50
2023/03/30 10:15:18;;;;;;;20.95;14.82;;;16.50;43.40;;;;;;5031727;28;20190;-53
2023/03/30 10:17:46;;;;;;;20.77;15.15;;;16.50;43.60;;;;;;5031957;28;20166;-51
2023/03/30 10:20:28;;;;;;;22.02;15.77;;;16.50;43.90;;;;;;5031967;28;20181;-52
2023/03/30 10:23:11;;;;;;;16.25;11.75;;;16.50;43.70;;;;;;5031900;28;20190;-50
2023/03/30 10:25:41;;;;;;;15.82;14.02;;;16.50;43.90;;;;;;5031635;28;20198;-53
2023/03/30 10:28:20;;;;;;;16.95;12.75;;;16.50;44.70;;;;;;5031923;28;20174;-51
2023/03/30 10:31:12;;;;;;;17.35;13.13;;;16.60;44.70;;;;;;5031590;28;20268;-53
2023/03/30 10:33:41;;;;;;;14.05;10.98;;;16.60;44.70;;;;;;5031475;28;20213;-53
2023/03/30 10:36:08;;;;;;;17.55;12.90;;;16.50;44.80;;;;;;5031614;28;20288;-50
2023/03/30 10:38:34;;;;;;;17.80;12.45;;;16.60;45.20;;;;;;5031831;28;20208;-54
2023/03/30 10:41:07;;;;;;;22.63;12.82;;;16.60;45.20;;;;;;5031663;28;20170;-51
2023/03/30 10:43:34;;;;;;;17.92;10.63;;;16.70;45.10;;;;;;5031337;28;20201;-53
2023/03/30 10:46:29;;;;;;;13.75;9.90;;;16.80;44.90;;;;;;5031565;28;20197;-53
2023/03/30 10:49:26;;;;;;;16.38;9.90;;;16.80;45.00;;;;;;5028939;28;20190;-51
2023/03/30 10:52:38;;;;;;;14.23;10.13;;;16.90;45.00;;;;;;4998818;28;20261;-54
2023/03/30 10:55:04;;;;;;;14.07;10.48;;;16.90;45.10;;;;;;4951079;29;20288;-52
2023/03/30 10:57:43;;;;;;;11.13;8.83;;;17.00;45.20;;;;;;5014966;28;20316;-54
2023/03/30 11:00:18;;;;;;;10.00;6.90;;;17.10;45.40;;;;;;5031508;28;20633;-52
2023/03/30 11:03:28;;;;;;;12.18;8.48;;;17.20;45.30;;;;;;5031428;28;20180;-52
2023/03/30 11:06:10;;;;;;;14.82;8.10;;;17.20;45.50;;;;;;5027303;28;20229;-53
2023/03/30 11:08:41;;;;;;;14.18;7.55;;;17.30;46.40;;;;;;5033813;28;20523;-53
2023/03/30 11:11:13;;;;;;;12.48;7.43;;;17.30;46.00;;;;;;5035255;28;20247;-53
2023/03/30 11:13:48;;;;;;;17.23;7.53;;;17.40;45.60;;;;;;5034515;28;20220;-51
2023/03/30 11:16:26;;;;;;;13.57;8.25;;;17.50;45.90;;;;;;5034958;28;20221;-53
2023/03/30 11:19:35;;;;;;;10.10;7.22;;;17.60;46.10;;;;;;5034812;28;20517;-54
2023/03/30 11:22:29;;;;;;;6.88;4.57;;;17.70;46.00;;;;;;5034757;28;20165;-53
2023/03/30 11:24:56;;;;;;;7.50;4.05;;;17.70;45.50;;;;;;5034703;28;20224;-54
2023/03/30 11:27:28;;;;;;;7.93;3.65;;;17.70;45.40;;;;;;5034525;28;20170;-51
2023/03/30 11:30:29;;;;;;;2.65;2.00;;;17.80;45.30;;;;;;5034465;28;20657;-51
2023/03/30 11:33:37;;;;;;;7.55;3.00;;;17.90;44.40;;;;;;5034230;28;20710;-53
2023/03/30 11:36:17;;;;;;;4.80;2.45;;;18.00;44.30;;;;;;5023665;28;20198;-52
2023/03/30 11:38:50;;;;;;;5.57;2.90;;;18.00;44.20;;;;;;5034408;28;20671;-54
2023/03/30 11:41:48;;;;;;;6.07;2.10;;;18.10;44.00;;;;;;5034341;28;20607;-51
2023/03/30 11:44:14;;;;;;;2.58;1.52;;;18.20;43.70;;;;;;4963293;28;20203;-53
2023/03/30 11:47:13;;;;;;;3.10;1.70;;;18.30;43.60;;;;;;5034293;28;20189;-51
2023/03/30 11:50:25;;;;;;;4.85;2.35;;;18.50;43.40;;;;;;5034549;28;20415;-51
2023/03/30 11:53:16;;;;;;;4.10;2.47;;;18.70;42.80;;;;;;5033837;28;20303;-52
2023/03/30 11:56:05;;;;;;;4.20;1.70;;;18.90;42.90;;;;;;5034235;28;20189;-54
2023/03/30 11:58:35;;;;;;;4.55;1.67;;;19.10;42.40;;;;;;5034002;28;20257;-51
2023/03/30 12:01:25;;;;;;;3.97;2.50;;;19.10;41.40;;;;;;5034261;28;20169;-51
2023/03/30 12:04:15;;;;;;;5.40;2.13;;;19.20;41.60;;;;;;5034028;28;20166;-54
2023/03/30 12:06:55;;;;;;;5.57;2.58;;;19.40;40.40;;;;;;5033390;28;20194;-51
2023/03/30 12:09:32;;;;;;;3.00;2.25;;;19.50;39.80;;;;;;5033852;28;20177;-54
2023/03/30 12:12:15;;;;;;;5.40;2.35;;;19.70;38.50;;;;;;5033348;28;20172;-53
2023/03/30 12:14:50;;;;;;;5.25;3.65;;;19.80;39.00;;;;;;5033801;28;20285;-54
2023/03/30 12:17:50;;;;;;;4.97;2.30;;;19.90;38.80;;;;;;5033711;28;20158;-52
2023/03/30 12:20:35;;;;;;;5.95;3.70;;;19.80;38.30;;;;;;5033667;28;20162;-51
2023/03/30 12:23:18;;;;;;;2.92;2.42;;;19.90;38.80;;;;;;5033365;28;20202;-54
2023/03/30 12:26:21;;;;;;;6.20;3.13;;;19.80;37.90;;;;;;5033394;28;20205;-54
2023/03/30 12:28:54;;;;;;;3.20;2.90;;;19.90;37.50;;;;;;5032912;28;20187;-54
2023/03/30 12:31:21;;;;;;;4.60;3.05;;;19.90;37.60;;;;;;5033331;28;20653;-51
2023/03/30 12:33:51;;;;;;;4.90;3.25;;;19.90;38.00;;;;;;5033043;28;20684;-55
2023/03/30 12:36:24;;;;;;;3.63;2.95;;;20.10;37.80;;;;;;5033448;28;20286;-51
2023/03/30 12:38:56;;;;;;;7.03;3.55;;;20.20;36.80;;;;;;5033120;28;20181;-52
2023/03/30 12:41:25;;;;;;;6.57;3.85;;;20.40;37.70;;;;;;5033367;28;20704;-53
2023/03/30 12:44:03;;;;;;;6.55;3.40;;;20.60;36.80;;;;;;5033216;28;20177;-52
2023/03/30 12:46:41;;;;;;;12.50;4.57;;;20.90;36.30;;;;;;5033149;28;20197;-52
2023/03/30 12:49:32;;;;;;;5.65;3.03;;;21.10;35.60;;;;;;5033011;28;20181;-51
2023/03/30 12:52:23;;;;;;;6.80;3.17;;;21.20;34.40;;;;;;5032669;28;20160;-53
2023/03/30 12:55:21;;;;;;;6.90;2.95;;;21.30;34.90;;;;;;5033181;28;20198;-51
2023/03/30 12:57:56;;;;;;;4.55;3.35;;;21.30;34.70;;;;;;5028812;28;20205;-53
2023/03/30 13:00:25;;;;;;;6.60;3.70;;;21.40;34.90;;;;;;5033036;28;20193;-51
2023/03/30 13:02:56;;;;;;;6.95;3.95;;;21.70;34.50;;;;;;5032811;28;20180;-53
2023/03/30 13:05:28;;;;;;;4.85;3.92;;;22.00;34.80;;;;;;5032816;28;20213;-54
2023/03/30 13:07:54;;;;;;;5.32;3.83;;;22.30;33.80;;;;;;5032796;28;20569;-52
2023/03/30 13:10:29;;;;;;;6.50;4.50;;;22.30;33.00;;;;;;5033057;28;20236;-51
2023/03/30 13:12:56;;;;;;;4.15;3.65;;;22.00;33.10;;;;;;5032752;28;20456;-55